createdAt,value
2017-08-13T00:00:32.171Z,2.00
2017-08-13T00:02:59.578Z,2.03
2017-08-13T00:05:26.586Z,2.50
2017-08-13T00:07:53.401Z,1.73
2017-08-13T00:10:20.244Z,2.53
2017-08-13T00:12:47.607Z,2.20
2017-08-13T00:15:15.010Z,1.83
2017-08-13T00:17:42.006Z,2.37
2017-08-13T00:20:09.324Z,2.53
2017-08-13T00:22:36.716Z,2.47
2017-08-13T00:25:03.539Z,2.90
2017-08-13T00:27:30.678Z,2.40
2017-08-13T00:29:57.566Z,2.57
2017-08-13T00:32:24.885Z,2.53
2017-08-13T00:34:51.681Z,2.40
2017-08-13T00:37:18.472Z,2.33
2017-08-13T00:39:45.623Z,2.93
2017-08-13T00:42:12.536Z,2.90
2017-08-13T00:44:40.021Z,2.57
2017-08-13T00:47:06.942Z,2.00
2017-08-13T00:49:34.014Z,3.27
2017-08-13T00:52:00.795Z,2.70
2017-08-13T00:54:28.719Z,2.37
2017-08-13T00:56:56.234Z,2.90
2017-08-13T00:59:23.023Z,2.83
2017-08-13T01:01:50.802Z,2.53
2017-08-13T01:04:18.627Z,1.97
2017-08-13T01:06:45.780Z,2.20
2017-08-13T01:09:13.047Z,2.60
2017-08-13T01:11:40.094Z,3.03
2017-08-13T01:14:07.146Z,2.53
2017-08-13T01:16:34.275Z,3.07
2017-08-13T01:19:01.251Z,2.50
2017-08-13T01:21:28.619Z,2.60
2017-08-13T01:23:55.667Z,2.40
2017-08-13T01:26:22.574Z,2.77
2017-08-13T01:28:50.017Z,2.90
2017-08-13T01:31:17.576Z,2.53
2017-08-13T01:33:45.406Z,2.80
2017-08-13T01:36:12.316Z,2.50
2017-08-13T01:38:39.522Z,2.80
2017-08-13T01:41:06.326Z,3.03
2017-08-13T01:43:33.623Z,2.97
2017-08-13T01:46:00.831Z,2.47
2017-08-13T01:48:28.032Z,3.13
2017-08-13T01:50:54.938Z,3.20
2017-08-13T01:53:21.837Z,3.33
2017-08-13T01:55:48.888Z,3.10
2017-08-13T01:58:16.051Z,3.27
2017-08-13T02:00:42.928Z,3.30
2017-08-13T02:03:09.696Z,3.67
2017-08-13T02:05:36.800Z,3.50
2017-08-13T02:08:03.641Z,3.93
2017-08-13T02:10:30.758Z,3.83
2017-08-13T02:12:58.297Z,3.47
2017-08-13T02:15:25.624Z,3.60
2017-08-13T02:17:52.683Z,3.83
2017-08-13T02:20:20.289Z,3.20
2017-08-13T02:22:47.436Z,3.70
2017-08-13T02:25:14.208Z,3.47
2017-08-13T02:27:41.191Z,3.40
2017-08-13T02:30:09.018Z,3.13
2017-08-13T02:32:37.233Z,3.33
2017-08-13T02:35:04.328Z,3.90
2017-08-13T02:37:31.667Z,4.30
2017-08-13T02:39:59.225Z,3.40
2017-08-13T02:42:27.374Z,3.20
2017-08-13T02:44:54.801Z,3.30
2017-08-13T02:47:21.779Z,3.10
2017-08-13T02:49:48.664Z,3.03
2017-08-13T02:52:15.550Z,3.23
2017-08-13T02:54:42.775Z,3.30
2017-08-13T02:57:09.831Z,3.73
2017-08-13T02:59:36.873Z,3.63
2017-08-13T03:02:03.923Z,3.10
2017-08-13T03:04:30.980Z,3.13
2017-08-13T03:06:58.032Z,3.10
2017-08-13T03:09:24.838Z,3.30
2017-08-13T03:11:51.674Z,3.77
2017-08-13T03:14:18.537Z,3.40
2017-08-13T03:16:45.737Z,3.37
2017-08-13T03:19:12.838Z,2.90
2017-08-13T03:21:39.883Z,3.70
2017-08-13T03:24:06.672Z,2.90
2017-08-13T03:26:34.184Z,2.77
2017-08-13T03:29:01.538Z,3.20
2017-08-13T03:31:28.321Z,2.77
2017-08-13T03:33:55.449Z,3.00
2017-08-13T03:36:22.371Z,2.93
2017-08-13T03:38:49.246Z,2.97
2017-08-13T03:41:16.589Z,2.63
2017-08-13T03:43:43.829Z,2.90
2017-08-13T03:46:10.880Z,2.43
2017-08-13T03:48:37.936Z,3.63
2017-08-13T03:51:04.814Z,2.27
2017-08-13T03:53:32.046Z,3.13
2017-08-13T03:55:58.871Z,3.13
2017-08-13T03:58:26.147Z,2.60
2017-08-13T04:00:53.675Z,3.20
2017-08-13T04:03:20.867Z,3.60
2017-08-13T04:05:48.171Z,2.80
2017-08-13T04:08:15.905Z,3.60
2017-08-13T04:10:42.948Z,3.00
2017-08-13T04:13:09.787Z,3.07
2017-08-13T04:15:37.062Z,3.13
2017-08-13T04:18:03.946Z,3.70
2017-08-13T04:20:31.173Z,3.67
2017-08-13T04:22:58.224Z,3.00
2017-08-13T04:25:25.277Z,3.57
2017-08-13T04:27:52.323Z,3.10
2017-08-13T04:30:19.111Z,2.40
2017-08-13T04:32:45.973Z,2.80
2017-08-13T04:35:12.825Z,2.73
2017-08-13T04:37:39.918Z,4.00
2017-08-13T04:40:06.807Z,2.93
2017-08-13T04:42:33.865Z,3.07
2017-08-13T04:45:00.663Z,2.83
2017-08-13T04:47:27.823Z,2.60
2017-08-13T04:49:54.659Z,3.70
2017-08-13T04:52:21.930Z,3.00
2017-08-13T04:54:49.094Z,3.30
2017-08-13T04:57:15.958Z,3.50
2017-08-13T04:59:42.949Z,3.40
2017-08-13T05:02:10.760Z,2.73
2017-08-13T05:04:37.664Z,3.17
2017-08-13T05:07:04.866Z,3.27
2017-08-13T05:09:31.693Z,2.50
2017-08-13T05:11:59.115Z,3.10
2017-08-13T05:14:26.031Z,3.10
2017-08-13T05:16:53.126Z,2.63
2017-08-13T05:19:20.434Z,3.07
2017-08-13T05:21:47.221Z,2.90
2017-08-13T05:24:14.013Z,2.80
2017-08-13T05:26:41.299Z,2.53
2017-08-13T05:29:08.105Z,2.60
2017-08-13T05:31:35.258Z,3.00
2017-08-13T05:34:02.452Z,2.00
2017-08-13T05:36:29.505Z,2.30
2017-08-13T05:38:56.737Z,2.80
2017-08-13T05:41:24.062Z,2.40
2017-08-13T05:43:51.278Z,2.33
2017-08-13T05:46:18.694Z,3.57
2017-08-13T05:48:45.527Z,2.03
2017-08-13T05:51:12.295Z,4.70
2017-08-13T05:53:39.823Z,2.90
2017-08-13T05:56:06.849Z,2.07
2017-08-13T05:58:33.627Z,2.70
2017-08-13T06:01:01.570Z,2.40
2017-08-13T06:03:29.071Z,2.73
2017-08-13T06:05:56.122Z,2.90
2017-08-13T06:08:23.989Z,2.93
2017-08-13T06:10:50.841Z,2.30
2017-08-13T06:13:17.650Z,2.27
2017-08-13T06:15:44.486Z,2.50
2017-08-13T06:18:11.360Z,1.83
2017-08-13T06:20:38.170Z,2.83
2017-08-13T06:23:05.042Z,1.87
2017-08-13T06:25:31.876Z,1.50
2017-08-13T06:27:59.454Z,2.00
2017-08-13T06:30:26.350Z,1.60
2017-08-13T06:32:53.199Z,1.60
2017-08-13T06:35:20.522Z,1.87
2017-08-13T06:37:48.074Z,1.70
2017-08-13T06:40:15.683Z,1.90
2017-08-13T06:42:42.887Z,1.87
2017-08-13T06:45:09.892Z,2.70
2017-08-13T06:47:37.123Z,2.00
2017-08-13T06:50:04.034Z,1.47
2017-08-13T06:52:30.872Z,2.73
2017-08-13T06:54:58.428Z,1.80
2017-08-13T06:57:25.210Z,1.83
2017-08-13T06:59:52.625Z,1.97
2017-08-13T07:02:19.983Z,1.90
2017-08-13T07:04:46.926Z,1.97
2017-08-13T07:07:14.119Z,1.97
2017-08-13T07:09:41.200Z,1.80
2017-08-13T07:12:08.256Z,2.17
2017-08-13T07:14:36.206Z,1.80
2017-08-13T07:17:03.282Z,1.80
2017-08-13T07:19:30.180Z,1.70
2017-08-13T07:21:57.226Z,2.00
2017-08-13T07:24:24.667Z,1.50
2017-08-13T07:26:51.639Z,1.90
2017-08-13T07:29:18.853Z,1.47
2017-08-13T07:31:45.709Z,2.50
2017-08-13T07:34:12.960Z,2.10
2017-08-13T07:36:39.737Z,2.10
2017-08-13T07:39:06.576Z,1.80
2017-08-13T07:41:33.340Z,1.70
2017-08-13T07:44:00.839Z,2.00
2017-08-13T07:46:28.483Z,1.70
2017-08-13T07:48:55.585Z,2.23
2017-08-13T07:51:22.474Z,1.73
2017-08-13T07:53:49.693Z,1.90
2017-08-13T07:56:16.744Z,1.97
2017-08-13T07:58:43.795Z,1.70
2017-08-13T08:01:10.614Z,2.27
2017-08-13T08:03:37.605Z,1.70
2017-08-13T08:06:04.657Z,1.70
2017-08-13T08:08:31.480Z,1.87
2017-08-13T08:10:58.272Z,1.87
2017-08-13T08:13:25.502Z,1.27
2017-08-13T08:15:52.307Z,1.70
2017-08-13T08:18:19.123Z,2.03
2017-08-13T08:20:46.185Z,2.07
2017-08-13T08:23:13.829Z,2.10
2017-08-13T08:25:40.768Z,1.87
2017-08-13T08:28:07.826Z,1.30
2017-08-13T08:30:35.181Z,1.30
2017-08-13T08:33:01.986Z,1.23
2017-08-13T08:35:28.768Z,1.57
2017-08-13T08:37:55.587Z,1.83
2017-08-13T08:40:22.780Z,1.57
2017-08-13T08:42:49.601Z,1.20
2017-08-13T08:45:16.424Z,1.80
2017-08-13T08:47:43.214Z,2.17
2017-08-13T08:50:10.028Z,1.23
2017-08-13T08:52:37.747Z,1.57
2017-08-13T08:55:05.408Z,1.60
2017-08-13T08:57:32.201Z,1.50
2017-08-13T08:59:59.352Z,1.50
2017-08-13T09:02:27.186Z,1.40
2017-08-13T09:04:54.077Z,2.13
2017-08-13T09:07:21.199Z,1.73
2017-08-13T09:09:48.337Z,2.30
2017-08-13T09:12:15.747Z,1.83
2017-08-13T09:14:43.216Z,1.47
2017-08-13T09:17:10.661Z,0.83
2017-08-13T09:19:37.452Z,1.50
2017-08-13T09:22:04.911Z,1.30
2017-08-13T09:24:32.022Z,1.50
2017-08-13T09:26:58.934Z,1.50
2017-08-13T09:29:25.830Z,0.80
2017-08-13T09:31:52.685Z,1.13
2017-08-13T09:34:19.808Z,1.50
2017-08-13T09:36:47.162Z,1.30
2017-08-13T09:39:14.202Z,1.50
2017-08-13T09:41:41.261Z,1.27
2017-08-13T09:44:08.073Z,1.23
2017-08-13T09:46:35.208Z,1.90
2017-08-13T09:49:02.108Z,1.23
2017-08-13T09:51:29.137Z,1.40
2017-08-13T09:53:56.064Z,1.63
2017-08-13T09:56:22.961Z,1.20
2017-08-13T09:58:49.852Z,1.50
2017-08-13T10:01:16.914Z,1.40
2017-08-13T10:03:43.695Z,1.47
2017-08-13T10:06:10.555Z,1.83
2017-08-13T10:08:37.479Z,1.30
2017-08-13T10:11:04.664Z,1.37
2017-08-13T10:13:31.479Z,1.87
2017-08-13T10:15:58.926Z,1.60
2017-08-13T10:18:26.145Z,1.30
2017-08-13T10:20:53.351Z,1.00
2017-08-13T10:23:20.743Z,1.63
2017-08-13T10:25:47.742Z,1.50
2017-08-13T10:28:14.599Z,1.50
2017-08-13T10:30:41.907Z,0.70
2017-08-13T10:33:08.688Z,0.70
2017-08-13T10:35:35.709Z,1.97
2017-08-13T10:38:02.702Z,1.50
2017-08-13T10:40:30.215Z,1.40
2017-08-13T10:42:57.276Z,1.30
2017-08-13T10:45:24.952Z,1.23
2017-08-13T10:47:51.771Z,1.40
2017-08-13T10:50:18.627Z,1.20
2017-08-13T10:52:45.502Z,1.40
2017-08-13T10:55:12.619Z,1.17
2017-08-13T10:57:40.150Z,1.10
2017-08-13T11:00:07.267Z,1.73
2017-08-13T11:02:34.055Z,1.30
2017-08-13T11:05:01.518Z,1.17
2017-08-13T11:07:28.563Z,1.40
2017-08-13T11:09:55.792Z,1.07
2017-08-13T11:12:22.630Z,0.90
2017-08-13T11:14:49.889Z,1.07
2017-08-13T11:17:16.939Z,1.40
2017-08-13T11:19:43.774Z,1.80
2017-08-13T11:22:11.052Z,1.40
2017-08-13T11:24:37.935Z,1.20
2017-08-13T11:27:04.750Z,0.90
2017-08-13T11:29:31.906Z,1.40
2017-08-13T11:31:59.453Z,1.30
2017-08-13T11:34:26.619Z,1.43
2017-08-13T11:36:53.517Z,1.60
2017-08-13T11:39:20.984Z,1.20
2017-08-13T11:41:48.699Z,1.70
2017-08-13T11:44:16.562Z,1.27
2017-08-13T11:46:43.360Z,1.60
2017-08-13T11:49:10.314Z,0.83
2017-08-13T11:51:37.535Z,2.10
2017-08-13T11:54:04.350Z,1.23
2017-08-13T11:56:31.218Z,1.67
2017-08-13T11:58:58.009Z,1.63
2017-08-13T12:01:25.137Z,1.40
2017-08-13T12:03:52.538Z,0.40
2017-08-13T12:06:19.364Z,1.10
2017-08-13T12:08:46.439Z,1.10
2017-08-13T12:11:14.259Z,1.60
2017-08-13T12:13:41.752Z,1.60
2017-08-13T12:16:08.827Z,1.83
2017-08-13T12:18:35.651Z,1.30
2017-08-13T12:21:02.776Z,1.47
2017-08-13T12:23:29.829Z,1.70
2017-08-13T12:25:56.711Z,1.80
2017-08-13T12:28:23.788Z,1.57
2017-08-13T12:30:51.308Z,1.40
2017-08-13T12:33:18.354Z,1.70
2017-08-13T12:35:45.198Z,1.20
2017-08-13T12:38:11.982Z,1.60
2017-08-13T12:40:39.202Z,1.47
2017-08-13T12:43:06.706Z,1.03
2017-08-13T12:45:33.518Z,1.70
2017-08-13T12:48:00.842Z,1.40
2017-08-13T12:50:28.034Z,1.57
2017-08-13T12:52:54.938Z,1.47
2017-08-13T12:55:22.134Z,1.73
2017-08-13T12:57:48.907Z,1.00
2017-08-13T13:00:15.932Z,1.73
2017-08-13T13:02:42.998Z,2.33
2017-08-13T13:05:10.042Z,1.40
2017-08-13T13:07:36.930Z,2.00
2017-08-13T13:10:04.146Z,1.80
2017-08-13T13:12:31.690Z,1.20
2017-08-13T13:14:59.108Z,1.60
2017-08-13T13:17:25.940Z,1.60
2017-08-13T13:19:53.467Z,1.20
2017-08-13T13:22:20.269Z,1.30
2017-08-13T13:24:47.386Z,1.23
2017-08-13T13:27:14.279Z,1.70
2017-08-13T13:29:41.114Z,1.50
2017-08-13T13:32:07.948Z,1.60
2017-08-13T13:34:34.855Z,2.00
2017-08-13T13:37:01.634Z,1.47
2017-08-13T13:39:28.615Z,1.30
2017-08-13T13:41:55.528Z,1.57
2017-08-13T13:44:22.428Z,1.30
2017-08-13T13:46:49.636Z,1.10
2017-08-13T13:49:16.693Z,1.20
2017-08-13T13:51:43.741Z,1.60
2017-08-13T13:54:11.282Z,1.37
2017-08-13T13:56:38.718Z,1.70
2017-08-13T13:59:06.396Z,1.30
2017-08-13T14:01:34.023Z,1.40
2017-08-13T14:04:01.160Z,1.50
2017-08-13T14:06:29.389Z,1.10
2017-08-13T14:08:56.437Z,1.30
2017-08-13T14:11:23.547Z,1.93
2017-08-13T14:13:50.899Z,1.73
2017-08-13T14:16:17.965Z,1.17
2017-08-13T14:18:44.777Z,1.20
2017-08-13T14:21:11.829Z,1.37
2017-08-13T14:23:38.658Z,1.90
2017-08-13T14:26:05.437Z,1.40
2017-08-13T14:28:32.235Z,1.70
2017-08-13T14:30:59.102Z,1.23
2017-08-13T14:33:25.940Z,1.37
2017-08-13T14:35:52.751Z,1.00
2017-08-13T14:38:20.125Z,1.20
2017-08-13T14:40:47.295Z,1.30
2017-08-13T14:43:14.803Z,1.30
2017-08-13T14:45:41.627Z,1.33
2017-08-13T14:48:09.046Z,1.07
2017-08-13T14:50:35.828Z,0.93
2017-08-13T14:53:02.978Z,1.60
2017-08-13T14:55:30.499Z,1.20
2017-08-13T14:57:57.386Z,1.40
2017-08-13T15:00:24.751Z,1.20
2017-08-13T15:02:52.152Z,1.77
2017-08-13T15:05:19.326Z,1.00
2017-08-13T15:07:46.384Z,1.37
2017-08-13T15:10:13.433Z,1.30
2017-08-13T15:12:40.485Z,1.70
2017-08-13T15:15:08.157Z,1.20
2017-08-13T15:17:35.210Z,1.27
2017-08-13T15:20:02.439Z,1.10
2017-08-13T15:22:30.207Z,1.40
2017-08-13T15:24:57.899Z,1.37
2017-08-13T15:27:25.293Z,1.70
2017-08-13T15:29:53.240Z,0.50
2017-08-13T15:32:20.291Z,1.20
2017-08-13T15:34:47.367Z,1.27
2017-08-13T15:37:14.245Z,0.60
2017-08-13T15:39:41.293Z,1.60
2017-08-13T15:42:08.798Z,1.30
2017-08-13T15:44:35.964Z,1.30
2017-08-13T15:47:03.362Z,1.77
2017-08-13T15:49:30.138Z,1.27
2017-08-13T15:51:57.328Z,1.57
2017-08-13T15:54:24.384Z,1.40
2017-08-13T15:56:51.183Z,1.90
2017-08-13T15:59:18.026Z,1.63
2017-08-13T16:01:45.241Z,2.00
2017-08-13T16:04:12.854Z,1.60
2017-08-13T16:06:39.790Z,1.20
2017-08-13T16:09:07.618Z,1.33
2017-08-13T16:11:34.519Z,1.67
2017-08-13T16:14:01.730Z,1.43
2017-08-13T16:16:28.550Z,1.33
2017-08-13T16:18:55.679Z,1.40
2017-08-13T16:21:22.725Z,1.20
2017-08-13T16:23:50.591Z,1.50
2017-08-13T16:26:17.384Z,1.73
2017-08-13T16:28:44.217Z,1.30
2017-08-13T16:31:11.992Z,1.57
2017-08-13T16:33:38.917Z,0.63
2017-08-13T16:36:06.181Z,1.53
2017-08-13T16:38:33.465Z,1.10
2017-08-13T16:41:00.270Z,1.43
2017-08-13T16:43:27.116Z,1.43
2017-08-13T16:45:54.502Z,2.00
2017-08-13T16:48:21.640Z,1.33
2017-08-13T16:50:49.639Z,1.23
2017-08-13T16:53:16.417Z,1.30
2017-08-13T16:55:43.811Z,1.23
2017-08-13T16:58:10.679Z,1.40
2017-08-13T17:00:37.892Z,1.30
2017-08-13T17:03:04.775Z,1.10
2017-08-13T17:05:32.131Z,1.37
2017-08-13T17:07:58.988Z,0.93
2017-08-13T17:10:26.094Z,1.00
2017-08-13T17:12:53.144Z,1.37
2017-08-13T17:15:21.121Z,1.63
2017-08-13T17:17:48.182Z,1.73
2017-08-13T17:20:15.007Z,2.00
2017-08-13T17:22:42.358Z,1.40
2017-08-13T17:25:09.468Z,1.00
2017-08-13T17:27:36.704Z,1.20
2017-08-13T17:30:03.930Z,1.10
2017-08-13T17:32:31.412Z,1.37
2017-08-13T17:34:58.842Z,1.20
2017-08-13T17:37:25.662Z,1.50
2017-08-13T17:39:53.172Z,1.30
2017-08-13T17:42:20.081Z,1.50
2017-08-13T17:44:47.585Z,2.17
2017-08-13T17:47:15.003Z,1.53
2017-08-13T17:49:42.010Z,1.60
2017-08-13T17:52:09.391Z,1.70
2017-08-13T17:54:36.632Z,1.93
2017-08-13T17:57:03.488Z,1.47
2017-08-13T17:59:31.150Z,2.67
2017-08-13T18:01:58.045Z,1.90
2017-08-13T18:04:25.256Z,1.57
2017-08-13T18:06:52.161Z,2.50
2017-08-13T18:09:19.673Z,2.03
2017-08-13T18:11:46.503Z,2.10
2017-08-13T18:14:13.923Z,1.40
2017-08-13T18:16:41.134Z,1.90
2017-08-13T18:19:08.375Z,1.80
2017-08-13T18:21:35.395Z,2.33
2017-08-13T18:24:02.629Z,1.67
2017-08-13T18:26:29.650Z,1.87
2017-08-13T18:28:57.226Z,1.60
2017-08-13T18:31:24.214Z,2.47
2017-08-13T18:33:51.570Z,2.13
2017-08-13T18:36:19.090Z,1.70
2017-08-13T18:38:46.149Z,1.67
2017-08-13T18:41:12.991Z,2.37
2017-08-13T18:43:40.448Z,4.07
2017-08-13T18:46:07.447Z,3.37
2017-08-13T18:48:34.502Z,4.60
2017-08-13T18:51:01.727Z,3.20
2017-08-13T18:53:28.773Z,3.60
2017-08-13T18:55:56.009Z,3.70
2017-08-13T18:58:23.799Z,3.70
2017-08-13T19:00:51.199Z,2.40
2017-08-13T19:03:18.050Z,2.57
2017-08-13T19:05:44.841Z,2.77
2017-08-13T19:08:12.625Z,2.40
2017-08-13T19:10:39.678Z,3.30
2017-08-13T19:13:07.349Z,3.20
2017-08-13T19:15:34.972Z,10.93
2017-08-13T19:18:01.932Z,2.40
2017-08-13T19:20:28.965Z,4.00
2017-08-13T19:22:56.317Z,3.27
2017-08-13T19:25:23.221Z,2.73
2017-08-13T19:27:50.113Z,3.00
2017-08-13T19:30:17.171Z,2.90
2017-08-13T19:32:44.227Z,8.50
2017-08-13T19:35:11.438Z,14.23
2017-08-13T19:37:38.684Z,22.10
2017-08-13T19:40:05.532Z,34.67
2017-08-13T19:42:32.597Z,21.03
2017-08-13T19:44:59.379Z,20.40
2017-08-13T19:47:26.712Z,14.80
2017-08-13T19:49:54.370Z,13.30
2017-08-13T19:52:21.179Z,9.20
2017-08-13T19:54:48.476Z,8.07
2017-08-13T19:57:15.375Z,6.00
2017-08-13T19:59:42.592Z,5.90
2017-08-13T20:02:09.475Z,6.57
2017-08-13T20:04:36.965Z,7.20
2017-08-13T20:07:03.744Z,6.90
2017-08-13T20:09:30.629Z,5.57
2017-08-13T20:11:57.682Z,6.00
2017-08-13T20:14:25.517Z,5.60
2017-08-13T20:16:52.573Z,4.90
2017-08-13T20:19:19.825Z,5.30
2017-08-13T20:21:46.981Z,4.07
2017-08-13T20:24:14.583Z,3.80
2017-08-13T20:26:41.901Z,4.20
2017-08-13T20:29:09.059Z,4.83
2017-08-13T20:31:36.988Z,4.80
2017-08-13T20:34:03.774Z,5.20
2017-08-13T20:36:30.835Z,4.67
2017-08-13T20:38:57.730Z,4.30
2017-08-13T20:41:25.556Z,3.93
2017-08-13T20:43:52.611Z,8.43
2017-08-13T20:46:19.767Z,4.43
2017-08-13T20:48:46.926Z,4.10
2017-08-13T20:51:13.905Z,4.43
2017-08-13T20:53:40.723Z,4.43
2017-08-13T20:56:07.875Z,3.40
2017-08-13T20:58:34.926Z,3.77
2017-08-13T21:01:02.456Z,3.50
2017-08-13T21:03:29.521Z,4.43
2017-08-13T21:05:56.545Z,3.90
2017-08-13T21:08:23.904Z,3.33
2017-08-13T21:10:51.313Z,3.20
2017-08-13T21:13:18.126Z,4.30
2017-08-13T21:15:44.939Z,4.80
2017-08-13T21:18:11.712Z,4.93
2017-08-13T21:20:38.848Z,4.83
2017-08-13T21:23:06.301Z,3.80
2017-08-13T21:25:33.083Z,4.40
2017-08-13T21:28:00.187Z,4.03
2017-08-13T21:30:27.239Z,4.03
2017-08-13T21:32:54.468Z,3.80
2017-08-13T21:35:22.199Z,3.93
2017-08-13T21:37:49.313Z,4.07
2017-08-13T21:40:16.368Z,3.40
2017-08-13T21:42:43.417Z,3.27
2017-08-13T21:45:11.048Z,4.60
2017-08-13T21:47:38.137Z,3.60
2017-08-13T21:50:05.034Z,2.87
2017-08-13T21:52:33.218Z,3.90
2017-08-13T21:54:59.982Z,3.10
2017-08-13T21:57:27.104Z,2.93
2017-08-13T21:59:54.895Z,3.47
2017-08-13T22:02:21.828Z,3.87
2017-08-13T22:04:48.882Z,3.50
2017-08-13T22:07:16.243Z,3.67
2017-08-13T22:09:43.462Z,2.80
2017-08-13T22:12:11.132Z,3.60
2017-08-13T22:14:38.191Z,3.40
2017-08-13T22:17:05.244Z,3.63
2017-08-13T22:19:32.286Z,3.70
2017-08-13T22:21:59.174Z,3.70
2017-08-13T22:24:26.391Z,4.07
2017-08-13T22:26:53.455Z,3.40
2017-08-13T22:29:21.308Z,3.33
2017-08-13T22:31:48.075Z,3.17
2017-08-13T22:34:15.069Z,3.17
2017-08-13T22:36:43.378Z,3.30
2017-08-13T22:39:10.902Z,3.80
2017-08-13T22:41:38.289Z,3.53
2017-08-13T22:44:05.583Z,3.07
2017-08-13T22:46:32.638Z,3.00
2017-08-13T22:49:00.295Z,3.37
2017-08-13T22:51:27.189Z,3.20
2017-08-13T22:53:53.970Z,2.97
2017-08-13T22:56:21.343Z,4.70
2017-08-13T22:58:48.166Z,4.13
2017-08-13T23:01:15.563Z,3.60
2017-08-13T23:03:42.467Z,3.90
2017-08-13T23:06:10.016Z,3.30
2017-08-13T23:08:37.481Z,3.60
2017-08-13T23:11:04.694Z,3.50
2017-08-13T23:13:31.582Z,3.67
2017-08-13T23:15:58.803Z,4.20
2017-08-13T23:18:25.576Z,3.50
2017-08-13T23:20:52.430Z,3.33
2017-08-13T23:23:19.360Z,3.10
2017-08-13T23:25:46.773Z,3.33
2017-08-13T23:28:13.905Z,3.63
2017-08-13T23:30:41.125Z,3.63
2017-08-13T23:33:08.176Z,3.20
2017-08-13T23:35:35.597Z,3.87
2017-08-13T23:38:02.399Z,3.83
2017-08-13T23:40:29.638Z,3.80
2017-08-13T23:42:56.706Z,3.57
2017-08-13T23:45:24.853Z,4.40
2017-08-13T23:47:51.662Z,3.73
2017-08-13T23:50:18.784Z,3.53
2017-08-13T23:52:45.659Z,4.23
2017-08-13T23:55:13.301Z,3.47
2017-08-13T23:57:40.389Z,3.40
